sensor_id;sensor_type;location;lat;lon;timestamp;P1;durP1;ratioP1;P2;durP2;ratioP2
31438;SDS011;18062;48.872;9.220;2022-09-25T00:00:32;39.90;;;37.93;;
31438;SDS011;18062;48.872;9.220;2022-09-25T00:02:58;35.97;;;34.13;;
31438;SDS011;18062;48.872;9.220;2022-09-25T00:05:24;34.60;;;32.57;;
31438;SDS011;18062;48.872;9.220;2022-09-25T00:07:50;31.43;;;29.73;;
31438;SDS011;18062;48.872;9.220;2022-09-25T00:10:17;32.47;;;30.83;;
31438;SDS011;18062;48.872;9.220;2022-09-25T00:12:43;34.37;;;32.70;;
31438;SDS011;18062;48.872;9.220;2022-09-25T00:15:09;32.40;;;30.83;;
31438;SDS011;18062;48.872;9.220;2022-09-25T00:17:35;37.57;;;35.70;;
31438;SDS011;18062;48.872;9.220;2022-09-25T00:20:01;34.63;;;32.87;;
31438;SDS011;18062;48.872;9.220;2022-09-25T00:22:27;37.13;;;35.33;;
31438;SDS011;18062;48.872;9.220;2022-09-25T00:24:54;31.90;;;30.30;;
31438;SDS011;18062;48.872;9.220;2022-09-25T00:27:20;38.17;;;36.33;;
31438;SDS011;18062;48.872;9.220;2022-09-25T00:29:46;36.27;;;34.50;;
31438;SDS011;18062;48.872;9.220;2022-09-25T00:32:12;37.30;;;35.40;;
31438;SDS011;18062;48.872;9.220;2022-09-25T00:34:39;33.30;;;31.60;;
31438;SDS011;18062;48.872;9.220;2022-09-25T00:37:05;22.90;;;21.73;;
31438;SDS011;18062;48.872;9.220;2022-09-25T00:39:32;34.43;;;32.77;;
31438;SDS011;18062;48.872;9.220;2022-09-25T00:41:58;28.57;;;27.20;;
31438;SDS011;18062;48.872;9.220;2022-09-25T00:47:05;34.73;;;33.07;;
31438;SDS011;18062;48.872;9.220;2022-09-25T00:49:32;31.70;;;30.13;;
31438;SDS011;18062;48.872;9.220;2022-09-25T00:51:59;35.07;;;33.40;;
31438;SDS011;18062;48.872;9.220;2022-09-25T00:54:30;35.17;;;33.43;;
31438;SDS011;18062;48.872;9.220;2022-09-25T00:56:58;31.47;;;29.83;;
31438;SDS011;18062;48.872;9.220;2022-09-25T00:59:29;30.00;;;28.50;;
31438;SDS011;18062;48.872;9.220;2022-09-25T01:01:55;34.10;;;32.43;;
31438;SDS011;18062;48.872;9.220;2022-09-25T01:04:23;34.57;;;32.93;;
31438;SDS011;18062;48.872;9.220;2022-09-25T01:06:49;29.33;;;27.70;;
31438;SDS011;18062;48.872;9.220;2022-09-25T01:09:15;32.70;;;31.07;;
31438;SDS011;18062;48.872;9.220;2022-09-25T01:11:41;33.07;;;31.37;;
31438;SDS011;18062;48.872;9.220;2022-09-25T01:14:09;30.30;;;28.77;;
31438;SDS011;18062;48.872;9.220;2022-09-25T01:16:42;31.57;;;30.03;;
31438;SDS011;18062;48.872;9.220;2022-09-25T01:29:53;34.17;;;32.53;;
31438;SDS011;18062;48.872;9.220;2022-09-25T01:32:43;29.70;;;28.23;;
31438;SDS011;18062;48.872;9.220;2022-09-25T01:43:18;27.17;;;25.87;;
31438;SDS011;18062;48.872;9.220;2022-09-25T01:45:54;28.03;;;26.63;;
31438;SDS011;18062;48.872;9.220;2022-09-25T01:48:25;32.17;;;30.57;;
31438;SDS011;18062;48.872;9.220;2022-09-25T01:53:21;26.83;;;25.50;;
31438;SDS011;18062;48.872;9.220;2022-09-25T01:55:50;28.80;;;27.30;;
31438;SDS011;18062;48.872;9.220;2022-09-25T02:00:49;32.73;;;31.17;;
31438;SDS011;18062;48.872;9.220;2022-09-25T02:03:52;27.60;;;26.27;;
31438;SDS011;18062;48.872;9.220;2022-09-25T02:06:12;26.07;;;24.77;;
31438;SDS011;18062;48.872;9.220;2022-09-25T02:08:42;36.00;;;34.30;;
31438;SDS011;18062;48.872;9.220;2022-09-25T02:11:09;33.40;;;31.80;;
31438;SDS011;18062;48.872;9.220;2022-09-25T02:13:45;38.27;;;36.43;;
31438;SDS011;18062;48.872;9.220;2022-09-25T02:16:18;37.60;;;35.73;;
31438;SDS011;18062;48.872;9.220;2022-09-25T02:18:46;33.37;;;31.77;;
31438;SDS011;18062;48.872;9.220;2022-09-25T02:21:35;27.10;;;25.70;;
31438;SDS011;18062;48.872;9.220;2022-09-25T02:24:15;31.17;;;29.60;;
31438;SDS011;18062;48.872;9.220;2022-09-25T02:26:41;37.20;;;35.37;;
31438;SDS011;18062;48.872;9.220;2022-09-25T02:29:07;32.10;;;30.50;;
31438;SDS011;18062;48.872;9.220;2022-09-25T02:31:34;29.17;;;27.77;;
31438;SDS011;18062;48.872;9.220;2022-09-25T02:34:02;35.37;;;33.67;;
31438;SDS011;18062;48.872;9.220;2022-09-25T02:36:28;37.00;;;35.03;;
31438;SDS011;18062;48.872;9.220;2022-09-25T02:38:56;34.87;;;33.13;;
31438;SDS011;18062;48.872;9.220;2022-09-25T02:41:26;35.50;;;33.80;;
31438;SDS011;18062;48.872;9.220;2022-09-25T02:48:50;34.57;;;32.87;;
31438;SDS011;18062;48.872;9.220;2022-09-25T02:53:51;34.97;;;33.27;;
31438;SDS011;18062;48.872;9.220;2022-09-25T02:56:29;29.33;;;27.83;;
31438;SDS011;18062;48.872;9.220;2022-09-25T02:59:02;33.00;;;31.50;;
31438;SDS011;18062;48.872;9.220;2022-09-25T03:01:30;26.70;;;25.40;;
31438;SDS011;18062;48.872;9.220;2022-09-25T03:03:56;27.17;;;25.87;;
31438;SDS011;18062;48.872;9.220;2022-09-25T03:06:23;32.70;;;31.17;;
31438;SDS011;18062;48.872;9.220;2022-09-25T03:08:51;27.33;;;26.03;;
31438;SDS011;18062;48.872;9.220;2022-09-25T03:11:20;31.50;;;30.00;;
31438;SDS011;18062;48.872;9.220;2022-09-25T03:13:54;33.53;;;31.93;;
31438;SDS011;18062;48.872;9.220;2022-09-25T03:18:46;38.60;;;36.73;;
31438;SDS011;18062;48.872;9.220;2022-09-25T03:21:12;34.93;;;33.23;;
31438;SDS011;18062;48.872;9.220;2022-09-25T03:23:38;32.57;;;31.00;;
31438;SDS011;18062;48.872;9.220;2022-09-25T03:26:04;34.23;;;32.47;;
31438;SDS011;18062;48.872;9.220;2022-09-25T03:28:31;34.63;;;33.00;;
31438;SDS011;18062;48.872;9.220;2022-09-25T03:31:15;30.93;;;29.43;;
31438;SDS011;18062;48.872;9.220;2022-09-25T03:33:41;29.07;;;27.70;;
31438;SDS011;18062;48.872;9.220;2022-09-25T03:38:43;30.17;;;28.67;;
31438;SDS011;18062;48.872;9.220;2022-09-25T03:41:10;32.50;;;31.00;;
31438;SDS011;18062;48.872;9.220;2022-09-25T03:43:37;27.67;;;26.27;;
31438;SDS011;18062;48.872;9.220;2022-09-25T03:46:04;33.43;;;31.83;;
31438;SDS011;18062;48.872;9.220;2022-09-25T03:48:31;32.63;;;31.03;;
31438;SDS011;18062;48.872;9.220;2022-09-25T03:50:57;28.07;;;26.50;;
31438;SDS011;18062;48.872;9.220;2022-09-25T03:53:26;32.90;;;31.37;;
31438;SDS011;18062;48.872;9.220;2022-09-25T03:55:54;30.20;;;28.70;;
31438;SDS011;18062;48.872;9.220;2022-09-25T03:58:20;38.50;;;36.67;;
31438;SDS011;18062;48.872;9.220;2022-09-25T04:00:46;33.43;;;31.63;;
31438;SDS011;18062;48.872;9.220;2022-09-25T04:03:12;36.87;;;35.10;;
31438;SDS011;18062;48.872;9.220;2022-09-25T04:05:39;36.10;;;34.27;;
31438;SDS011;18062;48.872;9.220;2022-09-25T04:08:06;33.63;;;32.03;;
31438;SDS011;18062;48.872;9.220;2022-09-25T04:10:32;40.87;;;38.90;;
31438;SDS011;18062;48.872;9.220;2022-09-25T04:13:03;37.30;;;35.50;;
31438;SDS011;18062;48.872;9.220;2022-09-25T04:15:29;32.23;;;30.63;;
31438;SDS011;18062;48.872;9.220;2022-09-25T04:17:56;35.80;;;33.83;;
31438;SDS011;18062;48.872;9.220;2022-09-25T04:20:22;38.27;;;36.33;;
31438;SDS011;18062;48.872;9.220;2022-09-25T04:22:48;32.67;;;31.00;;
31438;SDS011;18062;48.872;9.220;2022-09-25T04:25:14;34.23;;;32.47;;
31438;SDS011;18062;48.872;9.220;2022-09-25T04:27:40;34.17;;;32.57;;
31438;SDS011;18062;48.872;9.220;2022-09-25T04:30:09;38.73;;;36.87;;
31438;SDS011;18062;48.872;9.220;2022-09-25T04:32:35;31.37;;;29.87;;
31438;SDS011;18062;48.872;9.220;2022-09-25T04:35:20;30.43;;;28.93;;
31438;SDS011;18062;48.872;9.220;2022-09-25T04:37:46;32.30;;;30.80;;
31438;SDS011;18062;48.872;9.220;2022-09-25T04:40:12;35.13;;;33.40;;
31438;SDS011;18062;48.872;9.220;2022-09-25T04:42:38;31.93;;;30.37;;
31438;SDS011;18062;48.872;9.220;2022-09-25T04:45:07;35.43;;;33.60;;
31438;SDS011;18062;48.872;9.220;2022-09-25T04:47:33;30.73;;;29.23;;
31438;SDS011;18062;48.872;9.220;2022-09-25T04:49:59;34.67;;;32.97;;
31438;SDS011;18062;48.872;9.220;2022-09-25T04:52:25;32.50;;;30.87;;
31438;SDS011;18062;48.872;9.220;2022-09-25T04:54:52;33.00;;;31.33;;
31438;SDS011;18062;48.872;9.220;2022-09-25T04:57:19;31.33;;;29.80;;
31438;SDS011;18062;48.872;9.220;2022-09-25T04:59:46;30.03;;;28.47;;
31438;SDS011;18062;48.872;9.220;2022-09-25T05:02:14;33.53;;;31.90;;
31438;SDS011;18062;48.872;9.220;2022-09-25T05:04:40;40.07;;;38.10;;
31438;SDS011;18062;48.872;9.220;2022-09-25T05:07:06;41.47;;;39.33;;
31438;SDS011;18062;48.872;9.220;2022-09-25T05:09:32;34.07;;;32.27;;
31438;SDS011;18062;48.872;9.220;2022-09-25T05:11:58;37.10;;;35.20;;
31438;SDS011;18062;48.872;9.220;2022-09-25T05:14:24;35.20;;;33.40;;
31438;SDS011;18062;48.872;9.220;2022-09-25T05:16:50;29.43;;;28.00;;
31438;SDS011;18062;48.872;9.220;2022-09-25T05:19:16;35.97;;;34.27;;
31438;SDS011;18062;48.872;9.220;2022-09-25T05:21:42;33.30;;;31.60;;
31438;SDS011;18062;48.872;9.220;2022-09-25T05:24:09;34.60;;;32.90;;
31438;SDS011;18062;48.872;9.220;2022-09-25T05:26:35;31.67;;;30.17;;
31438;SDS011;18062;48.872;9.220;2022-09-25T05:29:01;26.87;;;25.57;;
31438;SDS011;18062;48.872;9.220;2022-09-25T05:31:28;27.57;;;26.17;;
31438;SDS011;18062;48.872;9.220;2022-09-25T05:33:54;34.60;;;33.00;;
31438;SDS011;18062;48.872;9.220;2022-09-25T05:36:20;35.13;;;33.47;;
31438;SDS011;18062;48.872;9.220;2022-09-25T05:38:46;32.60;;;31.00;;
31438;SDS011;18062;48.872;9.220;2022-09-25T05:41:12;31.40;;;29.90;;
31438;SDS011;18062;48.872;9.220;2022-09-25T05:43:44;32.33;;;30.57;;
31438;SDS011;18062;48.872;9.220;2022-09-25T05:46:11;35.73;;;33.83;;
31438;SDS011;18062;48.872;9.220;2022-09-25T05:48:38;29.40;;;27.90;;
31438;SDS011;18062;48.872;9.220;2022-09-25T05:51:04;33.10;;;31.40;;
31438;SDS011;18062;48.872;9.220;2022-09-25T05:53:30;32.60;;;31.00;;
31438;SDS011;18062;48.872;9.220;2022-09-25T05:55:59;33.10;;;31.37;;
31438;SDS011;18062;48.872;9.220;2022-09-25T05:58:26;29.10;;;27.50;;
31438;SDS011;18062;48.872;9.220;2022-09-25T06:00:53;28.80;;;27.40;;
31438;SDS011;18062;48.872;9.220;2022-09-25T06:03:19;30.80;;;29.20;;
31438;SDS011;18062;48.872;9.220;2022-09-25T06:05:45;30.83;;;29.33;;
31438;SDS011;18062;48.872;9.220;2022-09-25T06:08:11;35.87;;;34.10;;
31438;SDS011;18062;48.872;9.220;2022-09-25T06:10:40;29.97;;;28.47;;
31438;SDS011;18062;48.872;9.220;2022-09-25T06:13:07;40.07;;;37.93;;
31438;SDS011;18062;48.872;9.220;2022-09-25T06:15:34;33.93;;;32.30;;
31438;SDS011;18062;48.872;9.220;2022-09-25T06:18:01;34.03;;;32.30;;
31438;SDS011;18062;48.872;9.220;2022-09-25T06:20:28;33.80;;;32.20;;
31438;SDS011;18062;48.872;9.220;2022-09-25T06:22:54;33.70;;;31.93;;
31438;SDS011;18062;48.872;9.220;2022-09-25T06:25:21;30.90;;;29.17;;
31438;SDS011;18062;48.872;9.220;2022-09-25T06:27:50;27.80;;;26.23;;
31438;SDS011;18062;48.872;9.220;2022-09-25T06:30:16;34.33;;;32.67;;
31438;SDS011;18062;48.872;9.220;2022-09-25T06:32:44;34.70;;;32.97;;
31438;SDS011;18062;48.872;9.220;2022-09-25T06:35:10;28.47;;;27.07;;
31438;SDS011;18062;48.872;9.220;2022-09-25T06:37:36;35.77;;;34.10;;
31438;SDS011;18062;48.872;9.220;2022-09-25T06:40:02;38.83;;;36.77;;
31438;SDS011;18062;48.872;9.220;2022-09-25T06:42:28;38.73;;;36.83;;
31438;SDS011;18062;48.872;9.220;2022-09-25T06:44:54;34.77;;;33.03;;
31438;SDS011;18062;48.872;9.220;2022-09-25T06:47:20;34.30;;;32.60;;
31438;SDS011;18062;48.872;9.220;2022-09-25T06:49:46;33.30;;;31.77;;
31438;SDS011;18062;48.872;9.220;2022-09-25T06:52:13;29.20;;;27.73;;
31438;SDS011;18062;48.872;9.220;2022-09-25T06:54:39;34.70;;;33.00;;
31438;SDS011;18062;48.872;9.220;2022-09-25T06:57:05;39.03;;;37.10;;
31438;SDS011;18062;48.872;9.220;2022-09-25T06:59:33;30.93;;;29.47;;
31438;SDS011;18062;48.872;9.220;2022-09-25T07:01:59;29.17;;;27.73;;
31438;SDS011;18062;48.872;9.220;2022-09-25T07:04:45;38.07;;;36.23;;
31438;SDS011;18062;48.872;9.220;2022-09-25T07:07:15;28.67;;;27.33;;
31438;SDS011;18062;48.872;9.220;2022-09-25T07:09:43;26.50;;;25.13;;
31438;SDS011;18062;48.872;9.220;2022-09-25T07:12:09;34.67;;;32.80;;
31438;SDS011;18062;48.872;9.220;2022-09-25T07:14:35;36.43;;;34.67;;
31438;SDS011;18062;48.872;9.220;2022-09-25T07:17:02;33.77;;;31.97;;
31438;SDS011;18062;48.872;9.220;2022-09-25T07:19:28;33.10;;;31.40;;
31438;SDS011;18062;48.872;9.220;2022-09-25T07:21:54;31.13;;;29.67;;
31438;SDS011;18062;48.872;9.220;2022-09-25T07:24:20;36.57;;;34.70;;
31438;SDS011;18062;48.872;9.220;2022-09-25T07:26:46;31.07;;;29.33;;
31438;SDS011;18062;48.872;9.220;2022-09-25T07:29:12;29.20;;;27.80;;
31438;SDS011;18062;48.872;9.220;2022-09-25T07:31:38;32.77;;;31.13;;
31438;SDS011;18062;48.872;9.220;2022-09-25T07:34:04;28.57;;;27.03;;
31438;SDS011;18062;48.872;9.220;2022-09-25T07:36:33;27.43;;;26.00;;
31438;SDS011;18062;48.872;9.220;2022-09-25T07:38:59;25.60;;;24.23;;
31438;SDS011;18062;48.872;9.220;2022-09-25T07:41:25;27.90;;;26.43;;
31438;SDS011;18062;48.872;9.220;2022-09-25T07:43:52;24.60;;;23.27;;
31438;SDS011;18062;48.872;9.220;2022-09-25T07:46:21;26.33;;;24.97;;
31438;SDS011;18062;48.872;9.220;2022-09-25T07:48:48;23.60;;;22.43;;
31438;SDS011;18062;48.872;9.220;2022-09-25T07:51:14;23.60;;;22.40;;
31438;SDS011;18062;48.872;9.220;2022-09-25T07:53:40;27.87;;;26.40;;
31438;SDS011;18062;48.872;9.220;2022-09-25T07:56:07;21.03;;;19.73;;
31438;SDS011;18062;48.872;9.220;2022-09-25T07:58:34;23.47;;;22.23;;
31438;SDS011;18062;48.872;9.220;2022-09-25T08:01:00;21.50;;;20.30;;
31438;SDS011;18062;48.872;9.220;2022-09-25T08:03:27;24.00;;;22.77;;
31438;SDS011;18062;48.872;9.220;2022-09-25T08:06:00;21.50;;;20.37;;
31438;SDS011;18062;48.872;9.220;2022-09-25T08:08:26;21.40;;;20.27;;
31438;SDS011;18062;48.872;9.220;2022-09-25T08:10:53;14.53;;;13.70;;
31438;SDS011;18062;48.872;9.220;2022-09-25T08:13:20;23.70;;;22.53;;
31438;SDS011;18062;48.872;9.220;2022-09-25T08:15:46;18.73;;;17.73;;
31438;SDS011;18062;48.872;9.220;2022-09-25T08:18:12;18.20;;;17.27;;
31438;SDS011;18062;48.872;9.220;2022-09-25T08:20:38;21.03;;;19.87;;
31438;SDS011;18062;48.872;9.220;2022-09-25T08:23:05;32.90;;;31.27;;
31438;SDS011;18062;48.872;9.220;2022-09-25T08:25:32;23.30;;;22.13;;
31438;SDS011;18062;48.872;9.220;2022-09-25T08:27:58;25.00;;;23.73;;
31438;SDS011;18062;48.872;9.220;2022-09-25T08:30:24;30.03;;;28.13;;
31438;SDS011;18062;48.872;9.220;2022-09-25T08:32:50;15.83;;;15.03;;
31438;SDS011;18062;48.872;9.220;2022-09-25T08:35:16;16.10;;;15.23;;
31438;SDS011;18062;48.872;9.220;2022-09-25T08:37:43;31.03;;;29.17;;
31438;SDS011;18062;48.872;9.220;2022-09-25T08:40:23;15.00;;;14.27;;
31438;SDS011;18062;48.872;9.220;2022-09-25T08:42:51;17.33;;;16.30;;
31438;SDS011;18062;48.872;9.220;2022-09-25T08:45:27;13.20;;;12.43;;
31438;SDS011;18062;48.872;9.220;2022-09-25T08:48:15;25.77;;;24.37;;
31438;SDS011;18062;48.872;9.220;2022-09-25T08:51:02;32.93;;;31.30;;
31438;SDS011;18062;48.872;9.220;2022-09-25T08:53:29;30.47;;;28.90;;
31438;SDS011;18062;48.872;9.220;2022-09-25T08:55:55;22.53;;;21.40;;
31438;SDS011;18062;48.872;9.220;2022-09-25T08:58:42;28.87;;;27.33;;
31438;SDS011;18062;48.872;9.220;2022-09-25T09:01:12;39.47;;;37.57;;
31438;SDS011;18062;48.872;9.220;2022-09-25T09:04:26;32.10;;;30.53;;
31438;SDS011;18062;48.872;9.220;2022-09-25T09:06:26;44.47;;;42.33;;
31438;SDS011;18062;48.872;9.220;2022-09-25T09:11:47;58.80;;;55.93;;
31438;SDS011;18062;48.872;9.220;2022-09-25T09:14:15;49.47;;;47.03;;
31438;SDS011;18062;48.872;9.220;2022-09-25T09:16:46;42.33;;;40.10;;
31438;SDS011;18062;48.872;9.220;2022-09-25T09:19:14;31.10;;;29.43;;
31438;SDS011;18062;48.872;9.220;2022-09-25T09:37:14;53.47;;;50.87;;
31438;SDS011;18062;48.872;9.220;2022-09-25T09:42:24;61.07;;;58.13;;
31438;SDS011;18062;48.872;9.220;2022-09-25T09:47:36;77.33;;;73.60;;
31438;SDS011;18062;48.872;9.220;2022-09-25T09:52:48;69.77;;;66.53;;
31438;SDS011;18062;48.872;9.220;2022-09-25T09:55:25;54.60;;;51.93;;
31438;SDS011;18062;48.872;9.220;2022-09-25T09:57:53;56.27;;;53.47;;
31438;SDS011;18062;48.872;9.220;2022-09-25T10:00:21;53.10;;;50.50;;
31438;SDS011;18062;48.872;9.220;2022-09-25T10:05:24;41.03;;;39.03;;
31438;SDS011;18062;48.872;9.220;2022-09-25T10:07:51;31.73;;;30.07;;
31438;SDS011;18062;48.872;9.220;2022-09-25T10:10:18;20.63;;;19.50;;
31438;SDS011;18062;48.872;9.220;2022-09-25T10:12:48;21.10;;;19.97;;
31438;SDS011;18062;48.872;9.220;2022-09-25T10:15:38;41.80;;;39.60;;
31438;SDS011;18062;48.872;9.220;2022-09-25T10:18:02;57.73;;;54.87;;
31438;SDS011;18062;48.872;9.220;2022-09-25T10:23:58;62.60;;;59.33;;
31438;SDS011;18062;48.872;9.220;2022-09-25T10:25:59;58.73;;;55.90;;
31438;SDS011;18062;48.872;9.220;2022-09-25T10:28:32;48.00;;;45.47;;
31438;SDS011;18062;48.872;9.220;2022-09-25T10:31:00;38.83;;;36.93;;
31438;SDS011;18062;48.872;9.220;2022-09-25T10:33:28;42.17;;;40.17;;
31438;SDS011;18062;48.872;9.220;2022-09-25T10:35:55;26.20;;;24.70;;
31438;SDS011;18062;48.872;9.220;2022-09-25T10:38:35;28.50;;;26.77;;
31438;SDS011;18062;48.872;9.220;2022-09-25T10:41:18;41.73;;;39.63;;
31438;SDS011;18062;48.872;9.220;2022-09-25T10:43:52;56.60;;;53.57;;
31438;SDS011;18062;48.872;9.220;2022-09-25T10:46:35;68.03;;;64.60;;
31438;SDS011;18062;48.872;9.220;2022-09-25T10:49:22;83.53;;;79.63;;
31438;SDS011;18062;48.872;9.220;2022-09-25T10:52:08;85.17;;;80.83;;
31438;SDS011;18062;48.872;9.220;2022-09-25T10:54:34;56.37;;;53.73;;
31438;SDS011;18062;48.872;9.220;2022-09-25T10:57:01;67.07;;;63.80;;
31438;SDS011;18062;48.872;9.220;2022-09-25T10:59:47;85.37;;;81.27;;
31438;SDS011;18062;48.872;9.220;2022-09-25T11:02:30;62.83;;;59.50;;
31438;SDS011;18062;48.872;9.220;2022-09-25T11:04:58;62.97;;;59.83;;
31438;SDS011;18062;48.872;9.220;2022-09-25T11:07:24;58.03;;;55.17;;
31438;SDS011;18062;48.872;9.220;2022-09-25T11:09:51;54.20;;;51.50;;
31438;SDS011;18062;48.872;9.220;2022-09-25T11:12:21;41.60;;;39.50;;
31438;SDS011;18062;48.872;9.220;2022-09-25T11:14:53;50.87;;;48.23;;
31438;SDS011;18062;48.872;9.220;2022-09-25T11:17:29;44.37;;;41.97;;
31438;SDS011;18062;48.872;9.220;2022-09-25T11:22:49;73.10;;;69.40;;
31438;SDS011;18062;48.872;9.220;2022-09-25T11:25:19;46.60;;;44.10;;
31438;SDS011;18062;48.872;9.220;2022-09-25T11:27:50;43.10;;;40.90;;
31438;SDS011;18062;48.872;9.220;2022-09-25T11:30:19;34.67;;;32.93;;
31438;SDS011;18062;48.872;9.220;2022-09-25T11:40:39;54.83;;;52.03;;
31438;SDS011;18062;48.872;9.220;2022-09-25T11:46:38;55.67;;;52.87;;
31438;SDS011;18062;48.872;9.220;2022-09-25T11:54:44;43.57;;;41.17;;
31438;SDS011;18062;48.872;9.220;2022-09-25T12:04:40;44.70;;;42.37;;
31438;SDS011;18062;48.872;9.220;2022-09-25T12:07:16;64.63;;;60.93;;
31438;SDS011;18062;48.872;9.220;2022-09-25T12:09:57;73.93;;;70.13;;
31438;SDS011;18062;48.872;9.220;2022-09-25T12:15:27;130.37;;;122.87;;
31438;SDS011;18062;48.872;9.220;2022-09-25T12:20:59;218.80;;;206.73;;
31438;SDS011;18062;48.872;9.220;2022-09-25T12:31:06;123.90;;;117.43;;
31438;SDS011;18062;48.872;9.220;2022-09-25T12:38:36;94.37;;;89.73;;
31438;SDS011;18062;48.872;9.220;2022-09-25T12:41:17;69.10;;;65.77;;
31438;SDS011;18062;48.872;9.220;2022-09-25T12:46:25;87.05;;;82.53;;
31438;SDS011;18062;48.872;9.220;2022-09-25T12:51:50;175.93;;;165.07;;
31438;SDS011;18062;48.872;9.220;2022-09-25T12:54:25;133.43;;;125.03;;
31438;SDS011;18062;48.872;9.220;2022-09-25T12:59:20;225.73;;;212.18;;
31438;SDS011;18062;48.872;9.220;2022-09-25T13:01:54;223.70;;;210.88;;
31438;SDS011;18062;48.872;9.220;2022-09-25T13:09:43;302.73;;;284.75;;
31438;SDS011;18062;48.872;9.220;2022-09-25T13:12:13;409.02;;;384.63;;
31438;SDS011;18062;48.872;9.220;2022-09-25T13:14:45;430.90;;;403.48;;
31438;SDS011;18062;48.872;9.220;2022-09-25T13:17:12;391.88;;;367.80;;
31438;SDS011;18062;48.872;9.220;2022-09-25T13:19:40;368.42;;;345.65;;
31438;SDS011;18062;48.872;9.220;2022-09-25T13:22:13;398.90;;;374.20;;
31438;SDS011;18062;48.872;9.220;2022-09-25T13:24:49;412.30;;;387.15;;
31438;SDS011;18062;48.872;9.220;2022-09-25T13:27:20;380.30;;;356.58;;
31438;SDS011;18062;48.872;9.220;2022-09-25T13:29:56;384.98;;;361.70;;
31438;SDS011;18062;48.872;9.220;2022-09-25T13:32:24;339.10;;;317.77;;
31438;SDS011;18062;48.872;9.220;2022-09-25T13:34:54;291.63;;;274.65;;
31438;SDS011;18062;48.872;9.220;2022-09-25T13:37:23;322.52;;;304.38;;
31438;SDS011;18062;48.872;9.220;2022-09-25T13:39:50;315.52;;;297.92;;
31438;SDS011;18062;48.872;9.220;2022-09-25T13:42:36;343.58;;;324.50;;
31438;SDS011;18062;48.872;9.220;2022-09-25T14:03:03;356.77;;;334.75;;
31438;SDS011;18062;48.872;9.220;2022-09-25T14:05:30;309.48;;;290.05;;
31438;SDS011;18062;48.872;9.220;2022-09-25T14:08:09;344.08;;;322.30;;
31438;SDS011;18062;48.872;9.220;2022-09-25T14:10:36;271.88;;;255.23;;
31438;SDS011;18062;48.872;9.220;2022-09-25T14:13:10;342.00;;;321.10;;
31438;SDS011;18062;48.872;9.220;2022-09-25T14:15:37;287.10;;;269.98;;
31438;SDS011;18062;48.872;9.220;2022-09-25T14:18:05;263.05;;;246.77;;
31438;SDS011;18062;48.872;9.220;2022-09-25T14:20:39;246.48;;;231.05;;
31438;SDS011;18062;48.872;9.220;2022-09-25T14:23:13;285.95;;;267.92;;
31438;SDS011;18062;48.872;9.220;2022-09-25T14:25:40;267.38;;;250.82;;
31438;SDS011;18062;48.872;9.220;2022-09-25T14:28:33;285.33;;;268.02;;
31438;SDS011;18062;48.872;9.220;2022-09-25T14:36:12;282.23;;;264.80;;
31438;SDS011;18062;48.872;9.220;2022-09-25T14:41:25;309.40;;;291.45;;
31438;SDS011;18062;48.872;9.220;2022-09-25T14:46:41;370.60;;;347.58;;
31438;SDS011;18062;48.872;9.220;2022-09-25T14:49:41;337.25;;;316.60;;
31438;SDS011;18062;48.872;9.220;2022-09-25T14:52:04;411.13;;;384.88;;
31438;SDS011;18062;48.872;9.220;2022-09-25T14:54:32;412.98;;;387.23;;
31438;SDS011;18062;48.872;9.220;2022-09-25T14:57:03;417.85;;;391.33;;
31438;SDS011;18062;48.872;9.220;2022-09-25T15:01:56;402.30;;;376.60;;
31438;SDS011;18062;48.872;9.220;2022-09-25T15:04:24;395.75;;;370.52;;
31438;SDS011;18062;48.872;9.220;2022-09-25T15:07:01;345.73;;;324.27;;
31438;SDS011;18062;48.872;9.220;2022-09-25T15:09:35;337.45;;;315.45;;
31438;SDS011;18062;48.872;9.220;2022-09-25T15:12:47;306.27;;;287.23;;
31438;SDS011;18062;48.872;9.220;2022-09-25T15:14:58;370.58;;;347.58;;
31438;SDS011;18062;48.872;9.220;2022-09-25T15:17:24;355.58;;;333.15;;
31438;SDS011;18062;48.872;9.220;2022-09-25T15:19:51;332.02;;;312.38;;
31438;SDS011;18062;48.872;9.220;2022-09-25T15:22:19;322.33;;;302.60;;
31438;SDS011;18062;48.872;9.220;2022-09-25T15:24:51;270.63;;;254.50;;
31438;SDS011;18062;48.872;9.220;2022-09-25T15:27:18;322.23;;;302.98;;
31438;SDS011;18062;48.872;9.220;2022-09-25T15:29:45;353.13;;;331.38;;
31438;SDS011;18062;48.872;9.220;2022-09-25T15:32:22;307.85;;;289.45;;
31438;SDS011;18062;48.872;9.220;2022-09-25T15:34:49;347.97;;;327.43;;
31438;SDS011;18062;48.872;9.220;2022-09-25T15:37:25;298.10;;;280.90;;
31438;SDS011;18062;48.872;9.220;2022-09-25T15:39:53;305.40;;;288.00;;
31438;SDS011;18062;48.872;9.220;2022-09-25T15:42:19;260.20;;;245.90;;
31438;SDS011;18062;48.872;9.220;2022-09-25T15:44:45;250.70;;;237.27;;
31438;SDS011;18062;48.872;9.220;2022-09-25T15:49:53;222.40;;;211.50;;
31438;SDS011;18062;48.872;9.220;2022-09-25T15:52:24;198.47;;;188.23;;
31438;SDS011;18062;48.872;9.220;2022-09-25T15:54:53;185.63;;;176.77;;
31438;SDS011;18062;48.872;9.220;2022-09-25T15:57:25;206.40;;;196.27;;
31438;SDS011;18062;48.872;9.220;2022-09-25T15:59:53;162.40;;;154.57;;
31438;SDS011;18062;48.872;9.220;2022-09-25T16:02:39;199.80;;;190.33;;
31438;SDS011;18062;48.872;9.220;2022-09-25T16:05:28;182.23;;;173.43;;
31438;SDS011;18062;48.872;9.220;2022-09-25T16:10:41;170.70;;;162.40;;
31438;SDS011;18062;48.872;9.220;2022-09-25T16:13:21;162.87;;;155.37;;
31438;SDS011;18062;48.872;9.220;2022-09-25T16:15:52;149.57;;;142.47;;
31438;SDS011;18062;48.872;9.220;2022-09-25T16:20:46;102.30;;;97.67;;
31438;SDS011;18062;48.872;9.220;2022-09-25T16:23:19;94.70;;;90.40;;
31438;SDS011;18062;48.872;9.220;2022-09-25T16:25:48;109.73;;;104.67;;
31438;SDS011;18062;48.872;9.220;2022-09-25T16:28:24;93.73;;;89.20;;
31438;SDS011;18062;48.872;9.220;2022-09-25T16:33:28;91.37;;;87.17;;
31438;SDS011;18062;48.872;9.220;2022-09-25T16:36:01;96.80;;;92.37;;
31438;SDS011;18062;48.872;9.220;2022-09-25T16:38:32;88.60;;;84.57;;
31438;SDS011;18062;48.872;9.220;2022-09-25T16:43:34;88.47;;;84.37;;
31438;SDS011;18062;48.872;9.220;2022-09-25T16:46:11;77.37;;;73.87;;
31438;SDS011;18062;48.872;9.220;2022-09-25T16:48:38;84.03;;;80.13;;
31438;SDS011;18062;48.872;9.220;2022-09-25T16:51:07;77.33;;;73.63;;
31438;SDS011;18062;48.872;9.220;2022-09-25T16:53:35;62.47;;;59.50;;
31438;SDS011;18062;48.872;9.220;2022-09-25T16:56:03;67.20;;;63.93;;
31438;SDS011;18062;48.872;9.220;2022-09-25T16:58:30;72.17;;;68.67;;
31438;SDS011;18062;48.872;9.220;2022-09-25T17:00:56;75.87;;;72.03;;
31438;SDS011;18062;48.872;9.220;2022-09-25T17:03:24;76.90;;;73.33;;
31438;SDS011;18062;48.872;9.220;2022-09-25T17:05:50;84.90;;;80.90;;
31438;SDS011;18062;48.872;9.220;2022-09-25T17:08:17;83.13;;;79.10;;
31438;SDS011;18062;48.872;9.220;2022-09-25T17:10:44;88.20;;;84.20;;
31438;SDS011;18062;48.872;9.220;2022-09-25T17:13:12;79.60;;;76.00;;
31438;SDS011;18062;48.872;9.220;2022-09-25T17:15:39;74.40;;;70.73;;
31438;SDS011;18062;48.872;9.220;2022-09-25T17:18:13;80.63;;;76.83;;
31438;SDS011;18062;48.872;9.220;2022-09-25T17:20:41;74.27;;;70.87;;
31438;SDS011;18062;48.872;9.220;2022-09-25T17:23:07;73.87;;;70.53;;